Time;durP1;ratioP1;P1;durP2;ratioP2;P2;SDS_P1;SDS_P2;PMS_P1;PMS_P2;Temp;Humidity;BMP_temperature;BMP_pressure;BME280_temperature;BME280_humidity;BME280_pressure;Samples;Min_cycle;Max_cycle;Signal;HPM_P1;HPM_P2
2022/07/16 00:03:07;;;;;;;10.37;2.20;;;;;;;20.41;40.38;101060.72;5110191;28;20217;-66
2022/07/16 00:05:35;;;;;;;4.30;1.70;;;;;;;20.39;40.22;101062.81;5110350;28;20283;-65
2022/07/16 00:08:03;;;;;;;5.37;2.00;;;;;;;20.37;40.37;101064.03;5110819;28;20369;-65
2022/07/16 00:10:30;;;;;;;6.10;2.20;;;;;;;20.34;40.61;101054.47;5110495;28;20202;-65
2022/07/16 00:13:02;;;;;;;4.20;1.90;;;;;;;20.32;40.49;101061.06;5111256;28;20255;-65
2022/07/16 00:15:30;;;;;;;6.07;2.00;;;;;;;20.31;40.47;101062.09;5114442;28;20297;-64
2022/07/16 00:20:41;;;;;;;4.43;1.90;;;;;;;20.27;40.76;101061.66;5109734;28;20198;-65
2022/07/16 00:23:09;;;;;;;6.67;1.80;;;;;;;20.28;41.04;101058.78;5100152;28;20288;-64
2022/07/16 00:25:36;;;;;;;6.17;2.07;;;;;;;20.30;40.72;101058.56;5114471;28;20241;-65
2022/07/16 00:28:06;;;;;;;4.30;1.70;;;;;;;20.31;40.82;101054.03;5113470;28;20256;-65
2022/07/16 00:30:33;;;;;;;8.37;2.13;;;;;;;20.23;40.73;101053.13;5110008;28;20230;-65
2022/07/16 00:33:01;;;;;;;4.70;2.17;;;;;;;20.21;41.16;101059.75;5113297;28;20309;-65
2022/07/16 00:35:29;;;;;;;6.30;2.47;;;;;;;20.21;41.10;101049.00;5114146;28;20242;-65
2022/07/16 00:37:57;;;;;;;5.50;2.20;;;;;;;20.20;40.76;101052.72;5113659;28;20232;-64
2022/07/16 00:40:25;;;;;;;9.67;2.30;;;;;;;20.20;41.02;101050.00;5113935;28;20249;-64
2022/07/16 00:42:53;;;;;;;5.07;2.23;;;;;;;20.20;41.02;101053.53;5111869;28;20212;-65
2022/07/16 00:45:22;;;;;;;5.07;2.00;;;;;;;20.16;41.60;101052.25;5113179;28;20202;-65
2022/07/16 00:47:50;;;;;;;7.50;1.93;;;;;;;20.15;41.51;101049.75;5113844;28;20882;-65
2022/07/16 00:50:18;;;;;;;8.80;2.03;;;;;;;20.16;41.42;101046.03;5099805;28;20247;-64
2022/07/16 00:52:46;;;;;;;5.53;2.00;;;;;;;20.11;41.56;101043.13;5113256;28;20692;-64
2022/07/16 00:55:13;;;;;;;2.40;1.43;;;;;;;20.07;42.04;101048.03;5112697;28;20214;-65
2022/07/16 00:57:41;;;;;;;5.60;2.30;;;;;;;19.96;41.83;101053.16;5100219;28;20230;-66
2022/07/16 01:00:10;;;;;;;5.33;1.97;;;;;;;19.93;41.88;101057.06;5113904;28;20212;-65
2022/07/16 01:02:39;;;;;;;7.47;1.80;;;;;;;19.92;41.81;101063.47;5112727;28;20208;-65
2022/07/16 01:05:08;;;;;;;4.63;1.60;;;;;;;19.90;41.89;101058.28;5114139;28;20228;-66
2022/07/16 01:07:36;;;;;;;6.23;2.10;;;;;;;19.95;41.76;101059.56;5113350;28;20584;-65
2022/07/16 01:10:05;;;;;;;4.43;1.90;;;;;;;19.97;41.58;101058.31;5113528;28;20297;-65
2022/07/16 01:12:32;;;;;;;8.70;2.43;;;;;;;19.94;41.87;101052.50;5110821;28;20297;-66
2022/07/16 01:15:01;;;;;;;5.00;1.83;;;;;;;19.86;42.12;101054.31;5097518;28;20646;-65
2022/07/16 01:17:30;;;;;;;4.47;1.93;;;;;;;19.81;42.92;101058.59;5098149;28;20665;-65
2022/07/16 01:19:59;;;;;;;5.37;1.83;;;;;;;19.76;42.68;101053.81;5100719;28;20366;-67
2022/07/16 01:22:27;;;;;;;4.63;1.93;;;;;;;19.78;42.84;101059.00;5104942;28;20210;-65
2022/07/16 01:24:56;;;;;;;7.03;2.30;;;;;;;19.80;42.83;101056.94;5105756;28;20311;-64
2022/07/16 01:27:24;;;;;;;4.93;1.87;;;;;;;19.76;42.57;101048.44;5100560;28;20231;-65
2022/07/16 01:29:52;;;;;;;3.33;1.60;;;;;;;19.76;43.08;101051.13;5112987;28;20301;-64
2022/07/16 01:32:20;;;;;;;5.73;2.10;;;;;;;19.67;43.52;101046.91;5101698;28;20234;-65
2022/07/16 01:34:48;;;;;;;4.73;1.63;;;;;;;19.67;43.41;101044.22;5110245;28;20288;-65
2022/07/16 01:37:15;;;;;;;3.23;1.83;;;;;;;19.67;43.40;101046.91;5112186;28;20206;-64
2022/07/16 01:39:43;;;;;;;4.37;1.70;;;;;;;19.63;43.15;101053.69;5112738;28;20198;-65
2022/07/16 01:42:12;;;;;;;5.83;2.00;;;;;;;19.60;43.60;101051.41;5110570;28;20233;-64
2022/07/16 01:44:40;;;;;;;6.80;1.77;;;;;;;19.54;43.74;101052.16;5100444;28;20210;-63
2022/07/16 01:47:10;;;;;;;4.57;1.77;;;;;;;19.48;43.65;101044.84;5112798;28;20208;-65
2022/07/16 01:49:39;;;;;;;6.87;1.73;;;;;;;19.48;43.30;101047.56;5112171;28;20289;-66
2022/07/16 01:52:09;;;;;;;3.83;1.87;;;;;;;19.38;43.46;101049.69;5112119;28;20214;-65
2022/07/16 01:54:42;;;;;;;4.50;1.80;;;;;;;19.33;43.58;101038.69;5112460;28;20202;-66
2022/07/16 01:57:10;;;;;;;5.77;2.00;;;;;;;19.32;43.51;101039.69;5112222;28;20323;-64
2022/07/16 01:59:40;;;;;;;7.80;2.00;;;;;;;19.25;43.74;101044.19;5111998;28;20203;-66
2022/07/16 02:02:07;;;;;;;6.37;1.90;;;;;;;19.25;43.81;101041.50;5112018;28;20206;-65
2022/07/16 02:04:35;;;;;;;6.67;1.93;;;;;;;19.24;43.51;101037.13;5097331;28;20209;-64
2022/07/16 02:07:04;;;;;;;6.60;1.77;;;;;;;19.26;43.70;101043.16;5112639;28;20202;-66
2022/07/16 02:09:32;;;;;;;3.57;1.57;;;;;;;19.23;44.04;101043.53;5112112;28;20642;-65
2022/07/16 02:11:59;;;;;;;4.83;1.77;;;;;;;19.15;44.31;101037.25;5112110;28;20700;-64
2022/07/16 02:14:27;;;;;;;6.73;2.03;;;;;;;19.08;44.36;101046.28;5111967;28;20233;-65
2022/07/16 02:16:56;;;;;;;8.17;2.33;;;;;;;19.01;44.81;101040.81;5111857;28;20531;-66
2022/07/16 02:19:24;;;;;;;7.17;2.03;;;;;;;18.96;44.43;101039.72;5105989;28;20648;-64
2022/07/16 02:21:52;;;;;;;4.30;1.77;;;;;;;18.91;44.65;101036.78;5111207;28;20202;-65
2022/07/16 02:24:20;;;;;;;6.60;2.40;;;;;;;18.89;44.69;101034.28;5111624;28;20350;-63
2022/07/16 02:26:47;;;;;;;3.57;2.10;;;;;;;18.88;44.94;101045.22;5112014;28;20289;-65
2022/07/16 02:29:15;;;;;;;6.30;2.10;;;;;;;18.84;44.66;101038.53;5111672;28;20226;-65
2022/07/16 02:31:43;;;;;;;4.70;2.27;;;;;;;18.84;44.82;101035.84;5112114;28;20213;-65
2022/07/16 02:34:12;;;;;;;6.40;2.50;;;;;;;18.80;44.60;101030.03;5111644;28;20739;-64
2022/07/16 02:36:40;;;;;;;4.80;2.30;;;;;;;18.71;44.78;101032.00;5110961;28;20209;-66
2022/07/16 02:39:08;;;;;;;5.63;2.30;;;;;;;18.68;44.68;101026.16;5111976;28;20289;-67
2022/07/16 02:41:36;;;;;;;4.33;2.07;;;;;;;18.68;45.09;101034.19;5111980;28;20208;-64
2022/07/16 02:44:04;;;;;;;6.67;2.30;;;;;;;18.72;44.64;101036.34;5111112;28;20297;-64
2022/07/16 02:46:32;;;;;;;5.10;2.10;;;;;;;18.74;44.66;101034.28;5111808;28;20290;-66
2022/07/16 02:49:00;;;;;;;4.93;2.40;;;;;;;18.74;44.57;101033.44;5099512;28;20222;-66
2022/07/16 02:51:29;;;;;;;8.20;2.33;;;;;;;18.72;44.64;101030.13;5112345;28;20368;-64
2022/07/16 02:53:57;;;;;;;4.97;2.47;;;;;;;18.70;45.06;101034.84;5110542;28;20210;-65
2022/07/16 02:56:25;;;;;;;7.77;2.63;;;;;;;18.65;44.95;101035.41;5110837;28;20323;-64
2022/07/16 02:58:52;;;;;;;6.30;2.43;;;;;;;18.66;44.80;101036.25;5111605;28;20240;-65
2022/07/16 03:01:23;;;;;;;5.33;2.60;;;;;;;18.62;45.45;101034.97;5110532;28;20640;-65
2022/07/16 03:03:51;;;;;;;9.90;2.33;;;;;;;18.56;45.69;101035.69;5108438;28;20218;-65
2022/07/16 03:06:19;;;;;;;6.73;2.50;;;;;;;18.54;45.35;101041.22;5104551;28;20222;-65
2022/07/16 03:08:50;;;;;;;4.93;2.50;;;;;;;18.52;45.35;101040.59;5104097;28;20618;-66
2022/07/16 03:11:18;;;;;;;7.67;2.87;;;;;;;18.53;45.73;101046.78;5111066;28;20205;-65
2022/07/16 03:13:46;;;;;;;5.50;2.53;;;;;;;18.49;45.53;101042.78;5110843;28;20214;-65
2022/07/16 03:16:14;;;;;;;11.13;2.50;;;;;;;18.42;45.72;101040.03;5110178;28;20616;-66
2022/07/16 03:18:42;;;;;;;4.23;2.33;;;;;;;18.32;45.61;101040.28;5110870;28;20212;-66
2022/07/16 03:21:10;;;;;;;5.90;2.53;;;;;;;18.30;45.66;101042.31;5108642;28;20212;-66
2022/07/16 03:23:37;;;;;;;3.93;2.13;;;;;;;18.26;45.82;101049.09;5096769;28;20650;-66
2022/07/16 03:26:06;;;;;;;6.83;2.27;;;;;;;18.21;46.00;101051.47;5111483;28;20645;-65
2022/07/16 03:28:35;;;;;;;6.33;1.93;;;;;;;18.17;46.23;101052.88;5111510;28;20716;-65
2022/07/16 03:31:03;;;;;;;7.13;1.97;;;;;;;18.23;46.02;101056.66;5111749;28;20201;-64
2022/07/16 03:33:31;;;;;;;5.10;2.20;;;;;;;18.26;45.71;101057.16;5109331;28;20230;-65
2022/07/16 03:35:58;;;;;;;5.23;2.00;;;;;;;18.28;45.90;101065.88;5107396;28;20255;-64
2022/07/16 03:41:13;;;;;;;4.30;2.30;;;;;;;18.21;45.81;101064.91;5111611;28;20304;-65
2022/07/16 03:43:41;;;;;;;4.47;1.90;;;;;;;18.20;46.22;101060.59;5110443;28;20293;-65
2022/07/16 03:46:12;;;;;;;5.80;2.63;;;;;;;18.18;46.17;101059.09;5110462;28;20202;-66
2022/07/16 03:48:40;;;;;;;3.30;1.90;;;;;;;18.13;46.38;101065.00;5113826;28;20257;-65
2022/07/16 03:51:08;;;;;;;5.00;2.10;;;;;;;18.11;46.05;101059.00;5115387;28;20241;-64
2022/07/16 03:53:37;;;;;;;5.47;2.67;;;;;;;18.11;46.56;101056.31;5114414;28;20687;-65
2022/07/16 03:56:05;;;;;;;7.77;2.23;;;;;;;18.07;46.30;101057.69;5094119;28;20289;-66
2022/07/16 03:58:35;;;;;;;5.27;2.17;;;;;;;18.07;46.24;101057.69;5107871;28;20689;-66
2022/07/16 04:01:02;;;;;;;5.50;1.97;;;;;;;18.03;46.59;101061.72;5114621;28;20231;-65
2022/07/16 04:03:30;;;;;;;4.23;2.30;;;;;;;18.00;46.67;101054.06;5114000;28;20214;-65
2022/07/16 04:05:58;;;;;;;4.37;1.80;;;;;;;17.94;46.70;101066.34;5114704;28;20201;-65
2022/07/16 04:08:26;;;;;;;6.27;2.80;;;;;;;17.90;46.80;101064.22;5114622;28;20683;-66
2022/07/16 04:10:54;;;;;;;6.57;2.40;;;;;;;17.89;47.03;101063.38;5114194;28;20271;-66
2022/07/16 04:13:22;;;;;;;9.67;2.30;;;;;;;17.90;46.77;101062.38;5112857;28;20713;-65
2022/07/16 04:15:52;;;;;;;8.70;2.30;;;;;;;17.95;46.96;101062.63;5114647;28;20206;-64
2022/07/16 04:18:20;;;;;;;9.70;2.33;;;;;;;17.94;47.04;101062.84;5115121;28;20202;-63
2022/07/16 04:20:48;;;;;;;6.37;2.40;;;;;;;17.91;47.08;101061.34;5111014;28;20299;-64
2022/07/16 04:23:16;;;;;;;8.10;2.50;;;;;;;17.87;47.23;101060.03;5099765;28;20706;-66
2022/07/16 04:25:43;;;;;;;8.20;2.43;;;;;;;17.85;47.42;101058.56;5114249;28;20206;-65
2022/07/16 04:28:11;;;;;;;7.10;2.37;;;;;;;17.89;47.12;101059.84;5113548;28;20220;-65
2022/07/16 04:30:39;;;;;;;10.03;2.43;;;;;;;17.98;47.26;101066.81;5114178;28;20222;-64
2022/07/16 04:33:08;;;;;;;4.67;1.90;;;;;;;18.07;46.80;101060.34;5113870;28;20851;-65
2022/07/16 04:35:36;;;;;;;2.73;1.90;;;;;;;18.12;47.01;101057.94;5114075;28;20206;-64
2022/07/16 04:38:04;;;;;;;5.60;2.00;;;;;;;18.17;46.72;101060.94;5114288;28;20213;-65
2022/07/16 04:40:32;;;;;;;7.53;2.10;;;;;;;18.18;47.17;101065.28;5114052;28;20213;-65
2022/07/16 04:42:59;;;;;;;6.03;1.87;;;;;;;18.17;46.88;101066.31;5113974;28;20232;-64
2022/07/16 04:45:27;;;;;;;5.53;1.87;;;;;;;18.14;46.97;101063.97;5114089;28;20301;-65
2022/07/16 04:47:55;;;;;;;8.03;2.30;;;;;;;18.22;47.17;101061.22;5113739;28;20205;-65
2022/07/16 04:50:24;;;;;;;5.77;2.47;;;;;;;18.27;46.87;101064.19;5114285;28;20230;-65
2022/07/16 04:52:54;;;;;;;5.80;2.03;;;;;;;18.32;47.14;101072.50;5113121;28;20210;-65
2022/07/16 04:55:22;;;;;;;4.67;2.50;;;;;;;18.38;47.23;101071.78;5112734;28;20241;-64
2022/07/16 04:57:50;;;;;;;4.47;2.30;;;;;;;18.49;47.13;101066.97;5112978;28;20236;-65
2022/07/16 05:00:24;;;;;;;4.87;2.37;;;;;;;18.52;47.26;101072.81;5112767;28;20208;-64
2022/07/16 05:02:58;;;;;;;7.90;2.43;;;;;;;18.58;47.23;101065.88;5113298;28;20609;-65
2022/07/16 05:05:31;;;;;;;5.70;2.23;;;;;;;18.61;47.18;101077.09;5113327;28;20214;-65
2022/07/16 05:07:59;;;;;;;7.50;1.90;;;;;;;18.64;46.77;101082.13;5113878;28;20204;-65
2022/07/16 05:10:28;;;;;;;8.83;2.30;;;;;;;18.68;46.70;101083.41;5111469;28;20312;-65
2022/07/16 05:12:57;;;;;;;4.20;1.97;;;;;;;18.73;46.71;101090.91;5112452;28;20202;-65
2022/07/16 05:15:26;;;;;;;4.33;1.90;;;;;;;18.77;46.58;101090.34;5113652;28;20663;-65
2022/07/16 05:17:54;;;;;;;6.67;2.40;;;;;;;18.86;46.68;101096.44;5112933;28;20198;-66
2022/07/16 05:20:21;;;;;;;7.93;2.50;;;;;;;18.89;46.52;101096.06;5109806;28;20651;-64
2022/07/16 05:22:51;;;;;;;5.43;2.10;;;;;;;18.93;46.33;101102.72;5099404;28;20293;-64
2022/07/16 05:25:18;;;;;;;4.07;2.10;;;;;;;19.04;46.21;101104.09;5111754;28;20858;-64
2022/07/16 05:27:46;;;;;;;6.83;1.83;;;;;;;19.07;46.50;101101.91;5112825;28;20542;-65
2022/07/16 05:30:15;;;;;;;5.17;2.03;;;;;;;19.13;46.00;101111.88;5112502;28;20222;-65
2022/07/16 05:32:43;;;;;;;4.67;1.83;;;;;;;19.18;46.10;101112.13;5102122;28;20310;-63
2022/07/16 05:35:11;;;;;;;5.60;2.00;;;;;;;19.28;45.57;101124.44;5113042;28;20328;-64
2022/07/16 05:37:39;;;;;;;5.27;2.17;;;;;;;19.31;46.01;101116.00;5110852;28;20303;-65
2022/07/16 05:40:10;;;;;;;6.57;2.03;;;;;;;19.34;45.93;101121.03;5110170;28;20624;-66
2022/07/16 05:42:37;;;;;;;9.27;3.27;;;;;;;19.39;45.67;101124.81;5112398;28;20264;-67
2022/07/16 05:45:11;;;;;;;3.30;1.63;;;;;;;19.41;46.77;101127.31;5110303;28;20209;-65
2022/07/16 05:47:39;;;;;;;5.93;2.00;;;;;;;19.46;46.41;101127.56;5113034;28;20262;-65
2022/07/16 05:50:08;;;;;;;4.07;2.00;;;;;;;19.51;46.55;101122.50;5112223;28;20268;-65
2022/07/16 05:52:36;;;;;;;5.73;2.00;;;;;;;19.57;46.45;101132.47;5111705;28;20212;-66
2022/07/16 05:55:04;;;;;;;6.57;2.40;;;;;;;19.62;46.19;101127.34;5112017;28;20206;-65
2022/07/16 05:57:34;;;;;;;5.60;2.10;;;;;;;19.65;46.23;101129.66;5112059;28;20321;-66
2022/07/16 06:00:02;;;;;;;4.00;1.77;;;;;;;19.70;46.06;101127.22;5113001;28;20650;-66
2022/07/16 06:02:29;;;;;;;5.40;2.27;;;;;;;19.74;45.84;101127.69;5111452;28;20209;-65
2022/07/16 06:04:57;;;;;;;6.03;2.43;;;;;;;19.77;45.38;101128.13;5110404;28;20206;-64
2022/07/16 06:07:25;;;;;;;5.03;1.73;;;;;;;19.83;45.63;101132.75;5112458;28;20309;-66
2022/07/16 06:09:53;;;;;;;3.73;1.67;;;;;;;19.87;45.42;101134.03;5111767;28;20706;-64
2022/07/16 06:12:21;;;;;;;6.03;2.10;;;;;;;19.97;45.06;101132.84;5097002;28;20298;-65
2022/07/16 06:14:50;;;;;;;11.80;1.90;;;;;;;20.01;45.09;101131.47;5111797;28;20206;-65
2022/07/16 06:17:17;;;;;;;4.93;1.90;;;;;;;20.05;44.87;101130.88;5112333;28;20297;-64
2022/07/16 06:19:45;;;;;;;10.57;1.87;;;;;;;20.11;44.83;101131.97;5108519;28;20682;-66
2022/07/16 06:22:13;;;;;;;7.63;1.90;;;;;;;20.16;44.75;101133.03;5107873;28;20202;-63
2022/07/16 06:24:40;;;;;;;9.43;2.30;;;;;;;20.27;44.36;101139.75;5111479;28;20297;-65
2022/07/16 06:27:08;;;;;;;7.70;1.80;;;;;;;20.34;44.17;101132.59;5097034;28;20210;-64
2022/07/16 06:29:36;;;;;;;5.17;1.90;;;;;;;20.41;44.51;101146.94;5112017;28;20241;-64
2022/07/16 06:32:07;;;;;;;8.80;1.83;;;;;;;20.50;44.41;101140.34;5110674;28;20236;-64
2022/07/16 06:34:34;;;;;;;5.27;1.63;;;;;;;20.58;44.39;101142.09;5109170;28;20225;-64
2022/07/16 06:37:02;;;;;;;5.10;1.53;;;;;;;20.65;44.13;101143.81;5110604;28;20217;-64
2022/07/16 06:39:30;;;;;;;6.13;1.10;;;;;;;20.73;43.81;101152.75;5111090;28;20298;-64
2022/07/16 06:41:59;;;;;;;5.63;1.90;;;;;;;20.77;43.70;101157.53;5111696;28;20206;-65
2022/07/16 06:44:27;;;;;;;6.10;1.63;;;;;;;20.81;43.52;101161.50;5111543;28;20221;-64
2022/07/16 06:46:55;;;;;;;8.70;1.90;;;;;;;20.86;43.50;101159.03;5107626;28;20234;-65
2022/07/16 06:49:25;;;;;;;4.30;1.37;;;;;;;20.92;43.36;101157.44;5111054;28;20264;-65
2022/07/16 06:51:53;;;;;;;4.30;1.50;;;;;;;20.97;43.62;101157.66;5111440;28;20309;-65
2022/07/16 06:54:20;;;;;;;4.47;1.27;;;;;;;21.04;43.46;101147.72;5110958;28;20274;-63
2022/07/16 06:56:48;;;;;;;5.77;1.20;;;;;;;21.11;43.25;101148.59;5111466;28;20321;-64
2022/07/16 06:59:17;;;;;;;4.90;1.30;;;;;;;21.16;42.79;101139.91;5111668;28;20208;-65
2022/07/16 07:01:45;;;;;;;4.13;1.77;;;;;;;21.17;42.61;101134.34;5110919;28;20233;-65
2022/07/16 07:04:12;;;;;;;3.87;1.10;;;;;;;21.23;42.75;101141.63;5110072;28;20631;-65
2022/07/16 07:06:42;;;;;;;5.93;1.10;;;;;;;21.30;42.59;101145.19;5111245;28;20251;-64
2022/07/16 07:09:09;;;;;;;7.23;1.83;;;;;;;21.36;42.71;101147.09;5111415;28;20309;-65
2022/07/16 07:11:37;;;;;;;5.53;1.30;;;;;;;21.44;42.29;101139.84;5110986;28;20230;-66
2022/07/16 07:14:05;;;;;;;5.97;1.20;;;;;;;21.49;42.25;101137.34;5110890;28;20233;-65
2022/07/16 07:16:33;;;;;;;3.93;1.30;;;;;;;21.55;42.24;101134.66;5109180;28;20210;-65
2022/07/16 07:19:01;;;;;;;9.50;1.47;;;;;;;21.63;42.32;101137.22;5107497;28;20296;-67
2022/07/16 07:21:28;;;;;;;14.70;1.70;;;;;;;21.66;41.75;101138.66;5105146;28;20245;-65
2022/07/16 07:23:58;;;;;;;4.60;1.50;;;;;;;21.71;41.79;101134.31;5097630;28;20210;-64
2022/07/16 07:26:26;;;;;;;9.70;1.30;;;;;;;21.78;42.06;101137.84;5111437;28;20312;-65
2022/07/16 07:28:53;;;;;;;7.03;2.03;;;;;;;21.84;41.56;101138.88;5111074;28;20240;-64
2022/07/16 07:31:21;;;;;;;7.00;1.93;;;;;;;21.91;41.64;101134.31;5110779;28;20312;-65
2022/07/16 07:33:49;;;;;;;6.87;1.53;;;;;;;21.91;41.55;101137.03;5110247;28;20222;-64
2022/07/16 07:36:17;;;;;;;6.03;1.33;;;;;;;21.97;41.12;101133.53;5110803;28;20210;-66
2022/07/16 07:38:45;;;;;;;4.30;1.60;;;;;;;22.05;41.70;101130.63;5104674;28;20203;-65
2022/07/16 07:41:14;;;;;;;8.00;2.10;;;;;;;22.11;41.29;101129.78;5111084;28;20666;-66
2022/07/16 07:43:42;;;;;;;11.63;2.10;;;;;;;22.19;41.02;101130.63;5110319;28;20260;-65
2022/07/16 07:46:10;;;;;;;5.77;1.53;;;;;;;22.28;40.96;101137.47;5111469;28;20218;-65
2022/07/16 07:48:37;;;;;;;6.30;1.57;;;;;;;22.35;40.60;101131.03;5110230;28;20242;-66
2022/07/16 07:51:05;;;;;;;6.77;1.83;;;;;;;22.39;41.18;101136.84;5103481;28;20296;-65
2022/07/16 07:53:34;;;;;;;6.53;0.93;;;;;;;22.46;40.97;101138.50;5103437;28;20216;-64
2022/07/16 07:56:02;;;;;;;4.17;1.00;;;;;;;22.52;40.43;101137.66;5111133;28;20637;-64
2022/07/16 07:58:31;;;;;;;4.13;1.33;;;;;;;22.59;39.41;101131.44;5088539;28;20215;-64
2022/07/16 08:00:59;;;;;;;2.83;1.10;;;;;;;22.66;39.81;101132.25;5090098;28;20201;-66
2022/07/16 08:03:47;;;;;;;3.93;1.40;;;;;;;22.74;39.55;101122.06;5090097;28;20681;-65
2022/07/16 08:06:15;;;;;;;7.07;1.70;;;;;;;22.82;39.87;101129.94;5090725;28;20242;-64
2022/07/16 08:08:43;;;;;;;8.77;1.30;;;;;;;22.92;39.97;101125.97;5090085;28;20207;-65
2022/07/16 08:11:11;;;;;;;5.47;1.33;;;;;;;23.01;40.38;101136.34;5090146;28;20226;-65
2022/07/16 08:13:40;;;;;;;4.50;1.50;;;;;;;23.09;39.85;101127.16;5089296;28;20230;-65
2022/07/16 08:16:28;;;;;;;6.23;1.40;;;;;;;23.17;38.76;101129.59;5087026;28;20211;-66
2022/07/16 08:18:56;;;;;;;2.40;1.23;;;;;;;23.27;38.16;101129.97;5088077;28;20244;-65
2022/07/16 08:21:24;;;;;;;6.05;1.38;;;;;;;23.35;37.71;101137.03;5088072;28;20298;-64
2022/07/16 08:26:37;;;;;;;6.00;1.90;;;;;;;23.44;37.17;101133.84;5086150;28;20207;-65
2022/07/16 08:29:06;;;;;;;4.50;1.60;;;;;;;23.55;37.54;101135.91;5090039;28;20206;-65
2022/07/16 08:31:34;;;;;;;3.78;1.60;;;;;;;23.68;37.31;101145.81;5075837;28;20233;-65
2022/07/16 08:34:02;;;;;;;3.25;1.38;;;;;;;23.72;37.42;101138.94;5089422;28;20202;-66
2022/07/16 08:36:31;;;;;;;4.18;1.05;;;;;;;23.82;37.65;101139.28;5093950;28;20209;-67
2022/07/16 08:38:59;;;;;;;5.00;1.23;;;;;;;23.90;37.39;101138.19;5093952;28;20637;-65
2022/07/16 08:41:26;;;;;;;2.53;1.10;;;;;;;23.93;37.55;101137.72;5093114;28;20301;-65
2022/07/16 08:43:55;;;;;;;2.80;1.27;;;;;;;23.97;37.46;101141.66;5092740;28;20237;-66
2022/07/16 08:46:27;;;;;;;3.88;1.10;;;;;;;24.15;37.68;101144.44;5093607;28;20199;-65
2022/07/16 08:48:55;;;;;;;4.20;1.30;;;;;;;24.26;37.71;101141.06;5093899;28;20209;-66
2022/07/16 08:51:32;;;;;;;4.13;1.15;;;;;;;24.38;37.26;101139.25;5093803;28;20280;-65
2022/07/16 08:54:04;;;;;;;2.45;1.02;;;;;;;24.46;37.62;101135.44;5092832;28;20204;-65
2022/07/16 08:56:33;;;;;;;2.92;1.17;;;;;;;24.54;37.22;101126.19;5092969;28;20243;-65
2022/07/16 08:59:02;;;;;;;7.55;1.40;;;;;;;24.64;36.83;101123.78;5076732;28;20215;-66
2022/07/16 09:01:31;;;;;;;1.80;1.10;;;;;;;24.72;36.92;101124.31;5068028;28;20204;-66
2022/07/16 09:03:59;;;;;;;2.70;1.40;;;;;;;24.79;36.91;101123.44;5068608;28;20290;-66
2022/07/16 09:06:27;;;;;;;3.00;1.30;;;;;;;24.86;36.59;101119.59;5072782;28;20234;-66
2022/07/16 09:08:55;;;;;;;5.32;1.45;;;;;;;24.97;36.27;101118.88;5072918;28;20242;-66
2022/07/16 09:11:25;;;;;;;4.07;1.90;;;;;;;25.03;36.19;101117.94;5080041;28;20369;-66
2022/07/16 09:14:07;;;;;;;3.70;1.15;;;;;;;25.03;36.02;101128.78;5072811;28;20214;-66
2022/07/16 09:16:38;;;;;;;4.82;1.92;;;;;;;25.11;35.56;101123.06;5067809;28;20287;-66
2022/07/16 09:19:09;;;;;;;4.47;1.58;;;;;;;25.19;34.85;101119.19;5069597;28;20200;-66
2022/07/16 09:21:38;;;;;;;5.63;1.42;;;;;;;25.21;34.59;101114.38;5056622;28;20290;-66
2022/07/16 09:24:06;;;;;;;3.22;1.75;;;;;;;25.20;34.60;101129.00;5060931;28;20573;-66
2022/07/16 09:26:34;;;;;;;6.30;1.40;;;;;;;25.31;34.80;101128.25;5072518;28;20908;-66
2022/07/16 09:29:04;;;;;;;4.22;1.75;;;;;;;25.45;34.89;101126.16;5072651;28;20290;-65
2022/07/16 09:31:38;;;;;;;2.83;1.40;;;;;;;25.48;34.12;101131.13;5072320;28;20719;-65
2022/07/16 09:34:08;;;;;;;6.30;1.52;;;;;;;25.47;34.21;101121.34;5081309;28;20206;-65
2022/07/16 09:36:37;;;;;;;3.17;1.58;;;;;;;25.51;33.97;101127.16;5079677;28;20246;-66
2022/07/16 09:39:07;;;;;;;1.90;0.90;;;;;;;25.48;34.10;101128.44;5077266;28;20242;-66
2022/07/16 09:41:43;;;;;;;9.50;4.75;;;;;;;25.64;34.32;101125.09;5072903;28;20241;-65
2022/07/16 09:44:16;;;;;;;3.92;1.60;;;;;;;25.80;34.28;101129.03;5071674;28;20225;-66
2022/07/16 09:47:04;;;;;;;7.43;3.85;;;;;;;25.90;34.54;101121.13;5062185;28;20196;-65
2022/07/16 09:49:34;;;;;;;3.67;1.88;;;;;;;25.90;34.56;101120.31;5060640;28;20272;-65
2022/07/16 09:52:02;;;;;;;3.38;1.55;;;;;;;25.97;33.96;101121.03;5071740;28;20748;-65
2022/07/16 09:54:32;;;;;;;4.45;1.30;;;;;;;25.93;33.71;101119.84;5071707;28;20231;-65
2022/07/16 09:57:21;;;;;;;4.78;1.60;;;;;;;26.00;34.30;101126.81;5080609;28;20317;-66
2022/07/16 09:59:49;;;;;;;4.10;1.35;;;;;;;26.08;33.57;101133.81;5074445;28;20648;-65
2022/07/16 10:02:30;;;;;;;12.50;2.03;;;;;;;26.19;33.82;101127.56;5091152;28;20210;-66
2022/07/16 10:04:58;;;;;;;7.88;1.77;;;;;;;26.16;33.40;101130.75;5091899;28;20612;-65
2022/07/16 10:07:31;;;;;;;3.63;1.65;;;;;;;26.04;33.27;101132.59;5085949;28;20298;-65
2022/07/16 10:10:00;;;;;;;4.53;1.60;;;;;;;26.15;33.54;101134.53;5090674;28;20207;-66
2022/07/16 10:12:30;;;;;;;3.88;1.70;;;;;;;26.25;32.96;101126.63;5091055;28;20258;-65
2022/07/16 10:15:00;;;;;;;4.53;1.17;;;;;;;26.21;32.86;101128.16;5091947;28;20210;-64
2022/07/16 10:17:34;;;;;;;5.15;1.65;;;;;;;26.28;33.36;101128.91;5091906;28;20210;-65
2022/07/16 10:20:08;;;;;;;2.40;1.25;;;;;;;26.49;33.07;101128.28;5088892;28;20562;-65
2022/07/16 10:22:37;;;;;;;3.95;1.50;;;;;;;26.47;32.78;101127.72;5080571;28;20293;-65
2022/07/16 10:25:12;;;;;;;4.78;1.50;;;;;;;26.68;32.48;101120.84;5088493;28;20202;-66
2022/07/16 10:27:42;;;;;;;3.78;1.35;;;;;;;26.58;32.68;101121.44;5092201;28;20271;-66
2022/07/16 10:30:19;;;;;;;3.40;1.00;;;;;;;26.71;32.79;101122.25;5091525;28;20230;-66
2022/07/16 10:33:13;;;;;;;2.17;1.30;;;;;;;26.68;32.37;101120.00;5090200;28;20241;-66
2022/07/16 10:35:46;;;;;;;3.55;1.20;;;;;;;26.64;32.21;101116.13;5087853;28;20600;-66
2022/07/16 10:38:18;;;;;;;3.97;1.40;;;;;;;26.89;32.40;101119.41;5103896;28;20213;-66
2022/07/16 10:41:08;;;;;;;4.35;1.58;;;;;;;26.90;31.67;101115.59;5111927;28;20284;-66
2022/07/16 10:43:37;;;;;;;5.93;1.80;;;;;;;27.04;31.90;101117.00;5111599;28;20206;-66
2022/07/16 10:46:07;;;;;;;4.32;2.85;;;;;;;27.17;32.55;101124.91;5108137;28;20268;-66
2022/07/16 10:49:12;;;;;;;4.88;1.50;;;;;;;27.12;31.79;101124.78;5111369;28;20209;-66
2022/07/16 10:51:58;;;;;;;3.65;1.40;;;;;;;27.08;31.57;101115.47;5103938;28;20202;-65
2022/07/16 10:54:29;;;;;;;4.78;1.65;;;;;;;26.86;31.71;101122.59;5111038;28;20218;-66
2022/07/16 10:56:59;;;;;;;4.55;1.50;;;;;;;26.68;31.99;101122.72;5110829;28;20766;-66
2022/07/16 10:59:29;;;;;;;6.30;1.55;;;;;;;26.72;32.59;101130.19;5097774;28;20237;-69
2022/07/16 11:01:59;;;;;;;4.35;1.40;;;;;;;26.84;31.74;101128.25;5112092;28;20237;-66
2022/07/16 11:04:33;;;;;;;2.90;1.77;;;;;;;27.05;31.11;101118.66;5111402;28;20507;-66
2022/07/16 11:07:07;;;;;;;4.05;2.00;;;;;;;27.34;30.91;101120.34;5111624;28;20650;-65
2022/07/16 11:09:37;;;;;;;6.07;2.67;;;;;;;27.38;31.46;101115.22;5096805;28;20205;-66
2022/07/16 11:12:12;;;;;;;5.53;1.42;;;;;;;27.24;31.19;101122.88;5110472;28;20238;-66
2022/07/16 11:14:42;;;;;;;4.55;1.70;;;;;;;26.92;31.36;101124.38;5111105;28;20693;-66
2022/07/16 11:17:10;;;;;;;4.45;1.67;;;;;;;26.73;31.51;101123.69;5111682;28;20309;-66
2022/07/16 11:19:40;;;;;;;7.63;1.52;;;;;;;26.63;31.88;101123.47;5107719;28;20685;-66
2022/07/16 11:22:13;;;;;;;6.80;1.80;;;;;;;26.46;31.98;101126.06;5103590;28;20671;-66
2022/07/16 11:24:48;;;;;;;3.25;1.60;;;;;;;26.40;32.27;101132.44;5105165;28;20222;-67
2022/07/16 11:27:16;;;;;;;3.33;1.50;;;;;;;26.44;32.33;101125.47;5106393;28;20197;-65
2022/07/16 11:29:45;;;;;;;3.95;1.60;;;;;;;26.57;32.99;101133.38;5110331;28;20206;-65
2022/07/16 11:32:14;;;;;;;2.80;1.50;;;;;;;26.80;32.99;101129.81;5109695;28;20649;-66
2022/07/16 11:34:42;;;;;;;3.42;1.80;;;;;;;27.19;32.22;101111.88;5111053;28;20308;-66
2022/07/16 11:37:12;;;;;;;7.22;1.55;;;;;;;27.42;31.47;101118.31;5111054;28;20581;-66
2022/07/16 11:39:39;;;;;;;5.88;2.10;;;;;;;27.50;30.88;101118.72;5110682;28;20228;-66
2022/07/16 11:42:08;;;;;;;4.85;1.30;;;;;;;27.68;30.18;101120.44;5103536;28;20201;-66
2022/07/16 11:44:38;;;;;;;3.03;1.48;;;;;;;27.74;29.87;101113.19;5110637;28;20232;-66